Time;durP1;ratioP1;P1;durP2;ratioP2;P2;SDS_P1;SDS_P2;PMS_P1;PMS_P2;Temp;Humidity;BMP_temperature;BMP_pressure;BME280_temperature;BME280_humidity;BME280_pressure;Samples;Min_cycle;Max_cycle;Signal;HPM_P1;HPM_P2
2022/12/22 03:28:01;;;;;;;0.98;0.98;;;17.00;55.90;;;;;;5034637;28;20629;-62
2022/12/22 03:30:27;;;;;;;2.25;1.27;;;17.00;55.90;;;;;;5034086;28;20502;-61
2022/12/22 03:32:52;;;;;;;1.80;1.50;;;17.00;55.90;;;;;;5034469;28;20642;-62
2022/12/22 03:35:18;;;;;;;1.00;1.00;;;17.00;55.90;;;;;;5034503;28;20182;-63
2022/12/22 03:37:43;;;;;;;1.35;1.10;;;17.00;55.90;;;;;;5033451;28;20180;-63
2022/12/22 03:40:09;;;;;;;1.20;1.10;;;17.00;55.90;;;;;;5034344;28;20211;-64
2022/12/22 03:48:03;;;;;;;1.02;0.93;;;17.00;55.90;;;;;;5034190;28;20543;-63
2022/12/22 03:50:29;;;;;;;1.17;1.17;;;17.00;55.90;;;;;;5034205;28;20266;-63
2022/12/22 03:52:54;;;;;;;0.85;0.80;;;17.00;55.90;;;;;;5033197;28;20168;-63
2022/12/22 03:55:20;;;;;;;1.08;1.05;;;17.00;55.90;;;;;;5034106;28;20184;-63
2022/12/22 03:57:45;;;;;;;1.83;1.33;;;17.00;55.90;;;;;;5033808;28;20179;-62
2022/12/22 04:00:11;;;;;;;3.03;1.40;;;16.90;55.90;;;;;;5033339;28;20207;-62
2022/12/22 04:02:37;;;;;;;1.67;1.27;;;16.90;55.90;;;;;;5033678;28;20187;-62
2022/12/22 04:05:03;;;;;;;1.23;1.20;;;16.90;55.90;;;;;;5033968;28;20176;-63
2022/12/22 04:07:28;;;;;;;1.10;1.10;;;16.90;55.90;;;;;;5033066;28;20530;-63
2022/12/22 04:12:53;;;;;;;1.45;0.98;;;16.90;55.90;;;;;;5032810;28;20210;-63
2022/12/22 04:15:22;;;;;;;1.15;1.05;;;16.90;55.90;;;;;;5033255;28;20227;-63
2022/12/22 04:17:47;;;;;;;1.55;1.20;;;16.90;55.90;;;;;;5036392;28;20661;-63
2022/12/22 04:20:13;;;;;;;1.30;1.20;;;16.90;55.90;;;;;;5052677;28;20218;-62
2022/12/22 04:22:38;;;;;;;1.52;1.02;;;16.90;55.90;;;;;;5053390;28;20206;-62
2022/12/22 04:25:04;;;;;;;1.30;1.20;;;16.90;55.90;;;;;;5053640;28;20177;-62
2022/12/22 04:27:30;;;;;;;1.48;1.38;;;16.90;55.90;;;;;;5052710;28;20236;-61
2022/12/22 04:29:55;;;;;;;1.20;1.13;;;16.90;55.90;;;;;;5053488;28;20175;-62
2022/12/22 04:32:21;;;;;;;1.30;1.20;;;16.90;55.90;;;;;;5053284;28;20292;-62
2022/12/22 04:34:46;;;;;;;2.13;1.20;;;16.90;55.90;;;;;;5052480;28;20171;-63
2022/12/22 04:37:12;;;;;;;1.25;1.15;;;16.90;55.90;;;;;;5053504;28;20183;-64
2022/12/22 04:39:37;;;;;;;1.15;1.00;;;16.90;55.90;;;;;;5052989;28;20217;-62
2022/12/22 04:42:03;;;;;;;1.13;1.02;;;16.90;55.90;;;;;;5052601;28;20201;-62
2022/12/22 04:44:29;;;;;;;1.17;1.17;;;16.80;55.90;;;;;;5053182;28;20175;-62
2022/12/22 04:46:54;;;;;;;1.13;1.10;;;16.80;55.80;;;;;;5052691;28;20627;-62
2022/12/22 04:49:20;;;;;;;1.08;0.90;;;16.80;55.80;;;;;;5052592;28;20262;-62
2022/12/22 04:51:45;;;;;;;0.98;0.98;;;16.80;55.80;;;;;;5052601;28;20696;-62
2022/12/22 04:54:11;;;;;;;1.33;1.25;;;16.80;55.80;;;;;;5052985;28;20189;-62
2022/12/22 04:56:36;;;;;;;1.27;1.20;;;16.80;55.90;;;;;;5052071;28;20190;-61
2022/12/22 04:59:02;;;;;;;1.15;1.05;;;16.80;55.90;;;;;;5052915;28;20203;-62
2022/12/22 05:01:27;;;;;;;1.52;1.10;;;16.80;55.80;;;;;;5052921;28;20171;-61
2022/12/22 05:03:53;;;;;;;1.30;1.20;;;16.80;55.80;;;;;;5052278;28;20673;-62
2022/12/22 05:06:18;;;;;;;1.25;1.20;;;16.80;55.90;;;;;;5053105;28;20262;-63
2022/12/22 05:08:44;;;;;;;0.98;0.98;;;16.80;55.90;;;;;;5052057;28;20220;-62
2022/12/22 05:11:09;;;;;;;2.40;1.33;;;16.80;55.90;;;;;;5052902;28;20167;-62
2022/12/22 05:13:35;;;;;;;1.40;1.30;;;16.80;55.90;;;;;;5052442;28;20175;-62
2022/12/22 05:16:11;;;;;;;1.40;1.30;;;16.80;55.90;;;;;;5051922;28;20226;-62
2022/12/22 05:18:37;;;;;;;2.05;1.20;;;16.80;55.90;;;;;;5052329;28;20219;-62
2022/12/22 05:21:10;;;;;;;1.20;1.17;;;16.80;55.90;;;;;;5052878;28;20186;-62
2022/12/22 05:23:36;;;;;;;1.23;1.13;;;16.80;55.90;;;;;;5051851;28;20182;-62
2022/12/22 05:26:01;;;;;;;1.90;1.45;;;16.80;55.90;;;;;;5054169;28;20167;-62
2022/12/22 05:28:27;;;;;;;1.23;1.13;;;16.80;55.90;;;;;;5056991;28;20258;-62
2022/12/22 05:30:53;;;;;;;1.30;1.20;;;16.70;55.80;;;;;;5055744;28;20691;-62
2022/12/22 05:33:19;;;;;;;1.60;1.50;;;16.70;55.80;;;;;;5056890;28;20703;-62
2022/12/22 05:35:44;;;;;;;1.45;1.13;;;16.70;55.80;;;;;;5056481;28;20579;-63
2022/12/22 05:38:10;;;;;;;1.05;1.00;;;16.70;55.90;;;;;;5055982;28;20683;-63
2022/12/22 05:40:35;;;;;;;1.38;1.27;;;16.70;55.80;;;;;;5056450;28;20179;-62
2022/12/22 05:43:01;;;;;;;1.35;1.25;;;16.70;55.80;;;;;;5056605;28;20250;-63
2022/12/22 05:45:26;;;;;;;1.40;1.30;;;16.70;55.80;;;;;;5055750;28;20644;-62
2022/12/22 05:47:52;;;;;;;1.42;1.30;;;16.70;55.90;;;;;;5056341;28;20608;-62
2022/12/22 05:50:20;;;;;;;1.75;1.35;;;16.70;55.90;;;;;;5056478;28;20601;-62
2022/12/22 05:52:45;;;;;;;1.58;1.48;;;16.70;55.90;;;;;;5055314;28;20507;-62
2022/12/22 05:55:11;;;;;;;1.60;1.50;;;16.70;55.90;;;;;;5056395;28;20179;-63
2022/12/22 05:57:37;;;;;;;1.10;1.08;;;16.70;55.90;;;;;;5056193;28;20175;-63
2022/12/22 06:00:07;;;;;;;1.50;1.40;;;16.70;55.90;;;;;;5055211;28;20217;-63
2022/12/22 06:02:33;;;;;;;1.30;1.30;;;16.70;55.90;;;;;;5055886;28;20639;-62
2022/12/22 06:04:58;;;;;;;1.63;1.52;;;16.70;55.90;;;;;;5055318;28;20257;-63
2022/12/22 06:07:24;;;;;;;1.65;1.55;;;16.70;55.90;;;;;;5056204;28;20172;-62
2022/12/22 06:09:49;;;;;;;1.75;1.65;;;16.70;55.90;;;;;;5055829;28;20182;-63
2022/12/22 06:12:15;;;;;;;1.50;1.40;;;16.60;55.80;;;;;;5055264;28;20175;-62
2022/12/22 06:14:40;;;;;;;1.70;1.60;;;16.60;55.90;;;;;;5055364;28;20219;-62
2022/12/22 06:17:06;;;;;;;1.80;1.70;;;16.70;55.90;;;;;;5055694;28;20640;-63
2022/12/22 06:19:31;;;;;;;1.75;1.50;;;16.70;55.90;;;;;;5054713;28;20257;-63
2022/12/22 06:21:57;;;;;;;1.85;1.60;;;16.70;56.00;;;;;;5056086;28;20182;-62
2022/12/22 06:24:22;;;;;;;1.63;1.52;;;16.70;55.90;;;;;;5055931;28;20183;-62
2022/12/22 06:26:48;;;;;;;1.70;1.60;;;16.70;55.90;;;;;;5054859;28;20182;-62
2022/12/22 06:29:13;;;;;;;1.58;1.48;;;16.60;55.90;;;;;;5055719;28;20167;-63
2022/12/22 06:31:39;;;;;;;1.70;1.60;;;16.60;55.90;;;;;;5055587;28;20171;-62
2022/12/22 06:34:04;;;;;;;2.00;1.50;;;16.70;56.00;;;;;;5055110;28;20172;-64
2022/12/22 06:36:30;;;;;;;1.67;1.58;;;16.60;55.90;;;;;;5055015;28;20205;-63
2022/12/22 06:38:55;;;;;;;1.63;1.52;;;16.60;55.90;;;;;;5055336;28;20245;-63
2022/12/22 06:44:05;;;;;;;1.55;1.45;;;16.60;55.90;;;;;;5055383;28;20236;-63
2022/12/22 06:46:31;;;;;;;1.45;1.35;;;16.60;55.90;;;;;;5055076;28;20179;-63
2022/12/22 06:48:56;;;;;;;1.27;1.27;;;16.60;55.90;;;;;;5054555;28;20417;-63
2022/12/22 06:51:22;;;;;;;1.95;1.63;;;16.60;55.90;;;;;;5055399;28;20178;-63
2022/12/22 06:53:47;;;;;;;1.55;1.45;;;16.60;55.90;;;;;;5055008;28;20321;-63
2022/12/22 06:56:13;;;;;;;1.30;1.20;;;16.60;56.50;;;;;;5054458;28;20194;-63
2022/12/22 06:58:38;;;;;;;1.50;1.40;;;16.60;55.90;;;;;;5055007;28;20226;-62
2022/12/22 07:01:04;;;;;;;1.40;1.30;;;16.60;55.90;;;;;;5055088;28;20175;-62
2022/12/22 07:03:29;;;;;;;1.50;1.40;;;16.60;55.90;;;;;;5054373;28;20171;-62
2022/12/22 07:05:55;;;;;;;1.45;1.35;;;16.60;55.90;;;;;;5054921;28;20228;-62
2022/12/22 07:08:20;;;;;;;1.65;1.55;;;16.60;55.90;;;;;;5054358;28;20175;-63
2022/12/22 07:10:58;;;;;;;2.75;1.70;;;16.60;55.90;;;;;;5054555;28;20221;-63
2022/12/22 07:13:24;;;;;;;1.83;1.60;;;16.60;55.90;;;;;;5054784;28;20167;-63
2022/12/22 07:15:50;;;;;;;1.70;1.60;;;16.50;55.90;;;;;;5053698;28;20234;-62
2022/12/22 07:18:15;;;;;;;1.80;1.70;;;16.60;55.90;;;;;;5054814;28;20268;-63
2022/12/22 07:20:41;;;;;;;1.88;1.60;;;16.60;56.00;;;;;;5054287;28;20182;-62
2022/12/22 07:23:06;;;;;;;1.60;1.50;;;16.50;55.90;;;;;;5054113;28;20175;-62
2022/12/22 07:25:32;;;;;;;2.38;1.40;;;16.50;55.90;;;;;;5054225;28;20638;-62
2022/12/22 07:27:57;;;;;;;2.00;1.85;;;16.50;55.90;;;;;;5054722;28;20189;-62
2022/12/22 07:30:23;;;;;;;2.10;1.90;;;16.50;56.00;;;;;;5054001;28;20262;-62
2022/12/22 07:32:48;;;;;;;1.67;1.58;;;16.50;55.90;;;;;;5054330;28;20259;-62
2022/12/22 07:35:14;;;;;;;1.65;1.30;;;16.50;56.00;;;;;;5054417;28;20258;-63
2022/12/22 07:37:40;;;;;;;1.50;1.40;;;16.50;56.00;;;;;;5053299;28;20171;-63
2022/12/22 07:40:06;;;;;;;1.45;1.35;;;16.50;55.90;;;;;;5054264;28;20218;-63
2022/12/22 07:42:43;;;;;;;1.63;1.52;;;16.50;56.00;;;;;;5054147;28;20172;-63
2022/12/22 07:45:18;;;;;;;1.50;1.40;;;16.50;56.00;;;;;;5053540;28;20716;-63
2022/12/22 07:47:44;;;;;;;1.63;1.52;;;16.50;55.90;;;;;;5053715;28;20179;-62
2022/12/22 07:50:24;;;;;;;1.50;1.40;;;16.50;55.90;;;;;;5053484;28;20182;-62
2022/12/22 07:52:53;;;;;;;1.55;1.45;;;16.50;56.10;;;;;;5053634;28;20190;-75
2022/12/22 07:55:18;;;;;;;1.50;1.40;;;16.50;56.20;;;;;;5054228;28;20171;-73
2022/12/22 07:57:44;;;;;;;1.60;1.50;;;16.50;56.10;;;;;;5052990;28;20462;-75
2022/12/22 08:00:10;;;;;;;1.88;1.65;;;16.50;56.10;;;;;;5054067;28;20211;-75
2022/12/22 08:02:36;;;;;;;1.75;1.65;;;16.50;56.10;;;;;;5053486;28;20202;-74
2022/12/22 08:05:01;;;;;;;1.88;1.63;;;16.50;56.10;;;;;;5053173;28;20171;-73
2022/12/22 08:07:27;;;;;;;1.83;1.50;;;16.50;56.10;;;;;;5054001;28;20163;-73
2022/12/22 08:09:52;;;;;;;1.60;1.50;;;16.50;56.10;;;;;;5053414;28;20244;-73
2022/12/22 08:12:18;;;;;;;1.60;1.50;;;16.60;56.10;;;;;;5052955;28;20179;-73
2022/12/22 08:14:44;;;;;;;1.95;1.70;;;16.50;55.90;;;;;;5053187;28;20218;-73
2022/12/22 08:17:11;;;;;;;1.50;1.40;;;16.60;55.90;;;;;;5053638;28;20254;-72
2022/12/22 08:19:36;;;;;;;1.85;1.50;;;16.60;55.90;;;;;;5052574;28;20206;-74
2022/12/22 08:22:02;;;;;;;1.52;1.40;;;16.60;55.90;;;;;;5053504;28;20171;-70
2022/12/22 08:24:28;;;;;;;1.75;1.65;;;16.60;56.50;;;;;;5053718;28;20274;-74
2022/12/22 08:26:55;;;;;;;1.70;1.60;;;16.60;55.90;;;;;;5052533;28;20167;-74
2022/12/22 08:29:24;;;;;;;1.67;1.58;;;16.60;55.90;;;;;;5053525;28;20223;-73
2022/12/22 08:31:49;;;;;;;1.58;1.48;;;16.60;55.90;;;;;;5035370;28;20175;-72
2022/12/22 08:34:15;;;;;;;1.80;1.70;;;16.60;55.90;;;;;;5052574;28;20185;-72
2022/12/22 08:36:43;;;;;;;1.70;1.55;;;16.60;55.90;;;;;;5053234;28;20197;-73
2022/12/22 08:39:08;;;;;;;1.80;1.70;;;16.60;55.90;;;;;;5035516;28;20229;-71
2022/12/22 08:41:49;;;;;;;1.60;1.50;;;16.60;55.90;;;;;;5051084;28;20171;-73
2022/12/22 08:44:15;;;;;;;1.80;1.70;;;16.60;55.90;;;;;;5053121;28;20660;-74
2022/12/22 08:46:41;;;;;;;1.92;1.83;;;16.60;55.90;;;;;;5052030;28;20221;-76
2022/12/22 08:49:06;;;;;;;1.80;1.70;;;16.60;55.90;;;;;;5053396;28;20233;-75
2022/12/22 08:51:32;;;;;;;1.50;1.40;;;16.60;55.90;;;;;;5052912;28;20171;-74
2022/12/22 08:53:57;;;;;;;2.17;1.98;;;16.60;55.90;;;;;;5052460;28;20186;-73
2022/12/22 08:56:23;;;;;;;1.60;1.50;;;16.60;55.90;;;;;;5053156;28;20175;-75
2022/12/22 08:58:48;;;;;;;1.92;1.75;;;16.60;55.90;;;;;;5052602;28;20210;-74
2022/12/22 09:01:16;;;;;;;2.05;1.92;;;16.60;55.90;;;;;;5051956;28;20175;-73
2022/12/22 09:03:41;;;;;;;2.22;2.03;;;16.50;56.00;;;;;;5052524;28;20179;-73
2022/12/22 09:06:07;;;;;;;2.00;1.90;;;16.50;56.00;;;;;;5053061;28;20179;-71
2022/12/22 09:08:32;;;;;;;1.95;1.85;;;16.50;56.00;;;;;;5051984;28;20170;-73
2022/12/22 09:11:02;;;;;;;2.58;2.25;;;16.50;56.00;;;;;;5053089;28;20178;-71
2022/12/22 09:13:28;;;;;;;2.08;1.92;;;16.50;56.10;;;;;;5052974;28;20171;-72
2022/12/22 09:15:53;;;;;;;2.30;2.10;;;16.50;56.00;;;;;;5051593;28;20273;-72
2022/12/22 09:18:19;;;;;;;2.10;2.00;;;16.40;56.10;;;;;;5052861;28;20203;-72
2022/12/22 09:20:44;;;;;;;2.00;1.90;;;16.50;56.10;;;;;;5052673;28;20171;-72
2022/12/22 09:23:10;;;;;;;2.40;2.20;;;16.40;56.00;;;;;;5052165;28;20167;-71
2022/12/22 09:25:35;;;;;;;3.45;1.80;;;16.40;56.00;;;;;;5052499;28;20551;-75
2022/12/22 09:28:01;;;;;;;2.45;2.25;;;16.40;56.00;;;;;;5052710;28;20549;-73
2022/12/22 09:30:26;;;;;;;2.50;2.30;;;16.40;56.00;;;;;;5051984;28;20577;-73
2022/12/22 09:32:53;;;;;;;2.50;2.30;;;16.40;56.00;;;;;;5052281;28;20691;-71
2022/12/22 09:35:19;;;;;;;2.67;2.40;;;16.40;56.00;;;;;;5052869;28;20210;-72
2022/12/22 09:37:44;;;;;;;2.22;2.03;;;16.40;56.00;;;;;;5051748;28;20202;-74
2022/12/22 09:40:10;;;;;;;1.77;1.67;;;16.40;56.10;;;;;;5052690;28;20625;-72
2022/12/22 09:42:36;;;;;;;2.45;2.25;;;16.40;56.00;;;;;;5052308;28;20175;-75
2022/12/22 09:45:02;;;;;;;2.80;2.60;;;16.40;55.90;;;;;;5051740;28;20203;-73
2022/12/22 09:47:36;;;;;;;2.53;2.33;;;16.50;55.90;;;;;;5052724;28;20210;-75
2022/12/22 09:50:03;;;;;;;1.85;1.75;;;16.50;55.90;;;;;;5052046;28;20214;-74
2022/12/22 09:52:34;;;;;;;1.98;1.80;;;16.60;56.00;;;;;;5051365;28;20175;-74
2022/12/22 09:55:01;;;;;;;1.77;1.67;;;16.60;55.90;;;;;;5052339;28;20676;-72
2022/12/22 09:57:30;;;;;;;1.95;1.83;;;16.60;55.70;;;;;;5050444;28;20190;-74
2022/12/22 10:00:00;;;;;;;2.00;1.90;;;16.70;55.70;;;;;;5051108;28;20746;-73
2022/12/22 10:03:04;;;;;;;2.65;1.77;;;16.70;55.70;;;;;;5051434;28;20202;-74
2022/12/22 10:05:43;;;;;;;2.15;1.98;;;16.70;55.60;;;;;;5036697;28;20179;-73
2022/12/22 10:08:10;;;;;;;2.10;1.90;;;16.70;55.60;;;;;;5034933;28;20175;-72
2022/12/22 10:10:35;;;;;;;2.72;2.45;;;16.70;55.60;;;;;;5052040;28;20171;-72
2022/12/22 10:13:02;;;;;;;2.40;2.20;;;16.70;55.70;;;;;;5054435;28;20190;-70
2022/12/22 10:15:38;;;;;;;2.40;2.20;;;16.70;55.70;;;;;;5055692;28;20235;-71
2022/12/22 10:18:26;;;;;;;2.30;2.10;;;16.70;55.70;;;;;;5055798;28;20265;-70
2022/12/22 10:21:08;;;;;;;1.95;1.75;;;16.60;55.60;;;;;;5055913;28;20203;-68
2022/12/22 10:23:38;;;;;;;2.40;2.20;;;16.60;56.30;;;;;;5055491;28;20197;-67
2022/12/22 10:26:12;;;;;;;2.38;2.17;;;16.60;55.90;;;;;;5054419;28;20179;-73
2022/12/22 10:28:49;;;;;;;2.40;2.20;;;16.60;56.00;;;;;;5055472;28;20182;-68
2022/12/22 10:31:26;;;;;;;1.90;1.80;;;16.70;56.20;;;;;;5038279;28;20163;-66
2022/12/22 10:33:54;;;;;;;3.63;2.10;;;16.70;56.10;;;;;;5054808;28;20198;-66
2022/12/22 10:36:26;;;;;;;3.20;2.15;;;16.70;56.20;;;;;;5055699;28;20182;-64
2022/12/22 10:38:53;;;;;;;2.33;2.10;;;16.70;56.70;;;;;;5055313;28;20207;-66
2022/12/22 10:41:20;;;;;;;6.15;2.67;;;16.70;56.30;;;;;;5054653;28;20175;-66
2022/12/22 10:43:59;;;;;;;3.97;2.63;;;16.70;56.30;;;;;;5054095;28;20183;-66
2022/12/22 10:46:45;;;;;;;2.50;2.20;;;16.70;56.20;;;;;;5037181;28;20167;-67
2022/12/22 10:49:34;;;;;;;3.13;2.40;;;16.70;56.20;;;;;;5054095;28;20629;-66
2022/12/22 10:52:24;;;;;;;3.75;2.65;;;16.70;56.20;;;;;;5055152;28;20697;-67
2022/12/22 10:54:50;;;;;;;3.83;2.45;;;16.70;56.60;;;;;;5054491;28;20211;-76
2022/12/22 10:57:15;;;;;;;3.75;2.50;;;16.70;56.60;;;;;;5055243;28;20257;-73
2022/12/22 10:59:47;;;;;;;3.28;2.35;;;16.70;56.70;;;;;;5054841;28;20800;-77
2022/12/22 11:02:36;;;;;;;3.83;2.75;;;16.70;56.50;;;;;;5054220;28;20178;-79
2022/12/22 11:05:11;;;;;;;3.25;2.28;;;16.70;56.60;;;;;;5055128;28;20171;-65
2022/12/22 11:07:43;;;;;;;3.33;2.53;;;16.80;56.60;;;;;;5052877;28;20220;-67
2022/12/22 11:10:24;;;;;;;4.38;3.17;;;16.70;56.60;;;;;;5054914;28;20179;-65
2022/12/22 11:12:56;;;;;;;3.88;2.20;;;16.70;56.60;;;;;;5054416;28;20163;-67
2022/12/22 11:15:40;;;;;;;3.63;2.70;;;16.70;57.10;;;;;;5052780;28;20223;-67
2022/12/22 11:18:28;;;;;;;2.60;2.30;;;16.70;56.80;;;;;;5053632;28;20203;-67
2022/12/22 11:21:00;;;;;;;4.25;3.15;;;16.70;56.80;;;;;;5054338;28;20186;-67
2022/12/22 11:23:59;;;;;;;2.75;2.35;;;16.70;56.80;;;;;;5036704;28;20229;-67
2022/12/22 11:26:29;;;;;;;3.33;2.53;;;16.70;56.80;;;;;;5054917;28;20237;-68
2022/12/22 11:29:16;;;;;;;5.38;2.75;;;16.60;56.80;;;;;;5053657;28;20171;-70
2022/12/22 11:31:45;;;;;;;2.78;2.30;;;16.60;57.20;;;;;;5054490;28;20179;-77
2022/12/22 11:34:45;;;;;;;3.67;2.50;;;16.60;57.20;;;;;;5054640;28;20178;-75
2022/12/22 11:37:25;;;;;;;4.72;2.45;;;16.60;56.80;;;;;;5049016;28;20183;-72
2022/12/22 11:39:58;;;;;;;3.13;2.80;;;16.70;56.80;;;;;;5053006;28;20225;-73
2022/12/22 11:42:38;;;;;;;5.25;2.85;;;16.60;56.70;;;;;;5054604;28;20292;-73
2022/12/22 11:45:27;;;;;;;6.88;2.55;;;16.60;56.70;;;;;;5054223;28;20644;-73
2022/12/22 11:48:11;;;;;;;3.53;2.30;;;16.60;56.70;;;;;;5052893;28;20183;-76
2022/12/22 11:50:40;;;;;;;3.55;2.58;;;16.60;56.70;;;;;;5053483;28;20213;-77
2022/12/22 11:53:23;;;;;;;4.18;2.20;;;16.60;56.70;;;;;;5053513;28;20880;-66
2022/12/22 11:56:05;;;;;;;3.55;2.05;;;16.60;57.10;;;;;;5052613;28;20179;-70
2022/12/22 11:58:53;;;;;;;3.38;2.30;;;16.70;57.00;;;;;;5051732;28;20286;-68
2022/12/22 12:01:46;;;;;;;5.07;2.40;;;16.70;57.10;;;;;;5052706;28;20660;-69
2022/12/22 12:04:42;;;;;;;5.00;2.63;;;16.70;57.10;;;;;;5052062;28;20179;-68
2022/12/22 12:07:13;;;;;;;5.32;2.33;;;16.80;56.90;;;;;;5054847;28;20187;-64
2022/12/22 12:10:02;;;;;;;4.47;2.40;;;16.70;56.90;;;;;;5053382;28;20650;-63
2022/12/22 12:12:34;;;;;;;7.85;2.88;;;16.70;57.10;;;;;;5051649;28;20183;-65
2022/12/22 12:15:24;;;;;;;5.90;2.13;;;16.70;57.30;;;;;;5052330;28;20251;-69
2022/12/22 12:18:13;;;;;;;4.63;2.58;;;16.70;57.30;;;;;;5051701;28;20171;-62
2022/12/22 12:20:57;;;;;;;3.25;2.30;;;16.80;57.50;;;;;;5037779;28;20187;-69
2022/12/22 12:23:32;;;;;;;2.47;1.95;;;16.90;57.30;;;;;;5052541;28;20199;-72
2022/12/22 12:26:09;;;;;;;6.10;1.98;;;17.10;57.20;;;;;;5052974;28;20206;-71
2022/12/22 12:28:47;;;;;;;5.30;2.17;;;17.30;56.90;;;;;;5052104;28;20179;-70
2022/12/22 12:31:13;;;;;;;3.65;2.40;;;17.40;56.70;;;;;;5053433;28;20197;-68
2022/12/22 12:33:51;;;;;;;6.40;2.08;;;17.60;56.40;;;;;;5051246;28;20187;-62
2022/12/22 12:36:23;;;;;;;4.10;1.75;;;17.80;56.00;;;;;;5052456;28;20185;-62
2022/12/22 12:38:51;;;;;;;3.08;1.88;;;18.00;55.90;;;;;;5035263;28;20211;-62
2022/12/22 12:41:32;;;;;;;3.42;1.85;;;18.20;55.70;;;;;;5053322;28;20201;-62
2022/12/22 12:43:57;;;;;;;3.30;1.75;;;18.40;55.30;;;;;;5053129;28;20179;-62
2022/12/22 12:46:42;;;;;;;3.30;2.05;;;18.50;55.00;;;;;;5051286;28;20286;-70
2022/12/22 12:49:32;;;;;;;5.18;1.92;;;18.60;54.80;;;;;;5053263;28;20232;-63
2022/12/22 12:52:00;;;;;;;6.30;2.08;;;18.70;54.60;;;;;;5052957;28;20202;-63
2022/12/22 12:54:25;;;;;;;4.35;2.38;;;18.80;54.50;;;;;;5052301;28;20190;-63
2022/12/22 12:57:01;;;;;;;3.15;2.03;;;18.80;54.40;;;;;;5052841;28;20537;-63
2022/12/22 12:59:44;;;;;;;3.90;1.90;;;18.80;54.50;;;;;;5052012;28;20325;-64
2022/12/22 13:02:30;;;;;;;2.65;1.63;;;18.80;54.50;;;;;;5052295;28;20625;-63
2022/12/22 13:05:10;;;;;;;3.53;1.98;;;18.80;54.60;;;;;;5052788;28;20210;-63
2022/12/22 13:08:07;;;;;;;3.53;1.85;;;18.80;54.50;;;;;;5052117;28;20174;-63
2022/12/22 13:10:53;;;;;;;2.08;1.75;;;18.80;54.60;;;;;;5052591;28;20566;-63
2022/12/22 13:13:24;;;;;;;2.88;1.83;;;18.80;54.60;;;;;;5048708;28;20179;-63
2022/12/22 13:15:59;;;;;;;3.70;2.20;;;18.80;54.70;;;;;;5051827;28;20233;-63
2022/12/22 13:18:24;;;;;;;2.30;1.75;;;18.80;54.70;;;;;;5052796;28;20174;-63
2022/12/22 13:20:56;;;;;;;2.80;1.70;;;18.70;54.80;;;;;;5052564;28;20190;-63
2022/12/22 13:23:22;;;;;;;1.65;1.50;;;18.70;54.70;;;;;;5051246;28;20187;-63
2022/12/22 13:25:51;;;;;;;2.40;1.70;;;18.70;54.80;;;;;;5051288;28;20179;-63
2022/12/22 13:28:18;;;;;;;3.03;1.73;;;18.70;54.80;;;;;;5051188;28;20213;-63
2022/12/22 13:30:52;;;;;;;1.92;1.70;;;18.70;54.90;;;;;;5051148;28;20721;-63
2022/12/22 13:33:19;;;;;;;2.42;2.03;;;18.70;54.90;;;;;;5052833;28;20228;-62
2022/12/22 13:35:45;;;;;;;1.48;1.38;;;18.70;55.00;;;;;;5051624;28;20540;-62
2022/12/22 13:38:29;;;;;;;1.67;1.45;;;18.70;54.90;;;;;;5034563;28;20201;-63
2022/12/22 13:40:55;;;;;;;3.28;1.83;;;18.70;54.90;;;;;;5052034;28;20179;-67
2022/12/22 13:43:20;;;;;;;3.03;1.90;;;18.70;54.90;;;;;;5052046;28;20223;-63
2022/12/22 13:45:50;;;;;;;2.70;1.70;;;18.70;54.90;;;;;;5052476;28;20167;-65
2022/12/22 13:48:19;;;;;;;3.15;1.77;;;18.70;54.80;;;;;;5055763;28;20178;-67
2022/12/22 13:50:52;;;;;;;5.10;1.70;;;18.70;54.90;;;;;;5054252;28;20175;-66
2022/12/22 13:53:29;;;;;;;3.95;1.92;;;18.70;54.90;;;;;;5056466;28;20179;-65
2022/12/22 13:55:55;;;;;;;4.57;1.92;;;18.70;55.00;;;;;;5055038;28;20170;-67
2022/12/22 13:58:27;;;;;;;3.20;1.83;;;18.80;55.00;;;;;;5037813;28;20171;-67
2022/12/22 14:01:19;;;;;;;2.92;1.77;;;18.70;55.00;;;;;;5054656;28;20211;-67
2022/12/22 14:03:47;;;;;;;3.53;1.70;;;18.60;55.00;;;;;;5053845;28;20191;-67
2022/12/22 14:06:39;;;;;;;5.35;2.30;;;18.50;55.30;;;;;;5063923;28;20281;-67
2022/12/22 14:09:11;;;;;;;4.47;2.22;;;18.40;55.40;;;;;;5045722;28;20182;-67
2022/12/22 14:11:37;;;;;;;4.35;2.15;;;18.30;55.50;;;;;;5065863;28;20176;-67
2022/12/22 14:14:09;;;;;;;2.13;1.92;;;18.40;55.70;;;;;;5067118;28;20201;-67
2022/12/22 14:16:40;;;;;;;3.22;1.90;;;18.30;55.50;;;;;;5058150;28;20313;-67
2022/12/22 14:19:06;;;;;;;2.63;1.77;;;18.30;55.70;;;;;;5075151;28;20218;-67
2022/12/22 14:21:32;;;;;;;2.13;1.98;;;18.30;55.60;;;;;;5071815;28;20253;-67
2022/12/22 14:23:57;;;;;;;3.50;2.47;;;18.40;55.60;;;;;;5054696;28;20187;-67
2022/12/22 14:26:25;;;;;;;3.90;2.17;;;18.40;55.60;;;;;;5053775;28;20174;-67
2022/12/22 14:28:52;;;;;;;2.58;1.95;;;18.40;55.50;;;;;;5054332;28;20205;-67
2022/12/22 14:31:17;;;;;;;2.00;1.83;;;18.40;55.50;;;;;;5054308;28;20218;-67
2022/12/22 14:33:51;;;;;;;2.40;1.83;;;18.40;55.40;;;;;;5055135;28;20658;-66
2022/12/22 14:36:20;;;;;;;2.65;2.10;;;18.50;55.40;;;;;;5055526;28;20705;-66
2022/12/22 14:38:47;;;;;;;2.88;2.20;;;18.50;55.40;;;;;;5057938;28;20190;-66
2022/12/22 14:44:03;;;;;;;2.80;1.70;;;18.50;55.30;;;;;;5074728;28;20683;-67
2022/12/22 14:46:29;;;;;;;2.28;2.05;;;18.60;55.30;;;;;;5073482;28;20178;-66
2022/12/22 14:48:56;;;;;;;3.78;2.17;;;18.60;55.30;;;;;;5073852;28;20183;-66
2022/12/22 14:51:22;;;;;;;2.10;1.70;;;18.60;55.30;;;;;;5073961;28;20695;-66
2022/12/22 14:53:50;;;;;;;2.78;2.15;;;18.60;55.20;;;;;;5072983;28;20210;-66
2022/12/22 14:56:17;;;;;;;3.08;2.83;;;18.60;55.30;;;;;;5057792;28;20182;-66
2022/12/22 14:58:43;;;;;;;2.38;2.17;;;18.50;55.30;;;;;;5074402;28;20206;-66
2022/12/22 15:01:17;;;;;;;1.85;1.67;;;18.50;55.40;;;;;;5074396;28;20186;-67
2022/12/22 15:03:44;;;;;;;2.75;2.00;;;18.40;55.40;;;;;;5074618;28;20253;-67
2022/12/22 15:06:27;;;;;;;3.35;2.15;;;18.30;55.60;;;;;;5073760;28;20692;-67
2022/12/22 15:09:05;;;;;;;2.22;2.03;;;18.30;55.80;;;;;;5074699;28;20251;-67
2022/12/22 15:11:31;;;;;;;2.33;2.08;;;18.30;55.70;;;;;;5074709;28;20170;-67
2022/12/22 15:13:56;;;;;;;2.35;2.15;;;18.30;56.30;;;;;;5043949;28;20185;-66
2022/12/22 15:16:22;;;;;;;2.63;1.92;;;18.40;55.70;;;;;;5054582;28;20219;-67
2022/12/22 15:18:48;;;;;;;2.97;2.22;;;18.30;55.60;;;;;;5036565;28;20207;-67
2022/12/22 15:21:14;;;;;;;2.85;2.05;;;18.40;55.60;;;;;;5052584;28;20172;-67
2022/12/22 15:23:40;;;;;;;2.30;2.10;;;18.40;55.60;;;;;;5036774;28;20252;-67
2022/12/22 15:26:05;;;;;;;2.47;1.90;;;18.50;55.60;;;;;;5054613;28;20555;-67
2022/12/22 15:28:31;;;;;;;2.22;2.03;;;18.40;55.50;;;;;;5053552;28;20687;-67
2022/12/22 15:30:58;;;;;;;2.63;2.42;;;18.50;55.50;;;;;;5054697;28;20262;-76
2022/12/22 15:33:23;;;;;;;3.10;2.17;;;18.50;55.50;;;;;;5044645;28;20175;-77
2022/12/22 15:35:49;;;;;;;2.83;2.28;;;18.50;55.50;;;;;;5036006;28;20648;-78
2022/12/22 15:38:16;;;;;;;5.43;2.47;;;18.40;55.50;;;;;;5036949;28;20168;-76
2022/12/22 15:40:42;;;;;;;4.22;2.38;;;18.40;55.60;;;;;;5054062;28;20724;-70
2022/12/22 15:43:08;;;;;;;5.63;2.30;;;18.30;55.70;;;;;;5053672;28;20290;-72
2022/12/22 15:45:35;;;;;;;2.70;2.50;;;18.30;55.90;;;;;;5053864;28;20526;-71
2022/12/22 15:48:00;;;;;;;4.03;2.42;;;18.20;56.00;;;;;;5053339;28;20220;-72
2022/12/22 15:50:28;;;;;;;2.38;1.90;;;18.30;56.30;;;;;;5035971;28;20701;-71
2022/12/22 15:52:56;;;;;;;3.25;2.13;;;18.30;56.00;;;;;;5052935;28;20174;-71
2022/12/22 15:55:23;;;;;;;3.92;2.28;;;18.30;56.00;;;;;;5052761;28;20171;-70
2022/12/22 15:57:50;;;;;;;2.05;1.90;;;18.30;56.10;;;;;;5052863;28;20250;-70
2022/12/22 16:00:17;;;;;;;3.58;2.38;;;18.30;56.10;;;;;;5052954;28;20211;-71
2022/12/22 16:02:42;;;;;;;2.67;1.98;;;18.40;56.00;;;;;;5053849;28;20171;-72
2022/12/22 16:05:08;;;;;;;4.28;2.10;;;18.40;56.10;;;;;;5053244;28;20179;-71
2022/12/22 16:07:34;;;;;;;3.03;2.00;;;18.40;56.00;;;;;;5053692;28;20175;-71
2022/12/22 16:09:59;;;;;;;3.78;2.40;;;18.40;56.00;;;;;;5052318;28;20224;-72
2022/12/22 16:12:25;;;;;;;5.50;2.40;;;18.30;56.00;;;;;;5053705;28;20179;-71
2022/12/22 16:14:52;;;;;;;4.00;2.30;;;18.30;56.10;;;;;;5071788;28;20220;-71
2022/12/22 16:17:19;;;;;;;2.75;1.90;;;18.20;56.20;;;;;;5071934;28;20186;-70
2022/12/22 16:19:45;;;;;;;5.13;2.25;;;18.20;56.20;;;;;;5073300;28;20300;-71
2022/12/22 16:22:12;;;;;;;2.92;2.13;;;18.20;56.30;;;;;;5073505;28;20258;-71
2022/12/22 16:24:37;;;;;;;3.70;2.17;;;18.20;56.40;;;;;;5072590;28;20182;-70
2022/12/22 16:27:03;;;;;;;3.47;2.45;;;18.20;56.40;;;;;;5072209;28;20173;-73
2022/12/22 16:29:28;;;;;;;4.32;2.25;;;18.20;56.40;;;;;;5073585;28;20178;-67
2022/12/22 16:32:12;;;;;;;4.82;2.60;;;18.30;56.30;;;;;;5072481;28;20170;-65
2022/12/22 16:34:38;;;;;;;3.80;2.20;;;18.30;56.40;;;;;;5073162;28;20256;-62
2022/12/22 16:37:03;;;;;;;2.90;2.60;;;18.30;56.40;;;;;;5073143;28;20625;-64
2022/12/22 16:39:29;;;;;;;3.83;2.70;;;18.20;56.40;;;;;;5072264;28;20198;-66
2022/12/22 16:41:54;;;;;;;5.65;2.35;;;18.20;56.50;;;;;;5073122;28;20219;-65